Terminal Aerodrome Forecast
Issued by NWS

Home | Current Version | Previous Version | Text Only | Print | Product List | Glossary On
Versions: 1 2 3 4 5 6 7 8 9 10 11 12 13 14 15 16 17 18 19 20 21 22 23
000
FTUS43 KLSX 142300
TAFCPS
TAF
KCPS 142331Z 1500/1524 13008KT P6SM BKN250
     FM150900 15007KT P6SM BKN015
     FM151100 15011KT 4SM -RA OVC009
     FM151600 15015KT P6SM BKN015
     FM151800 15015KT P6SM VCSH BKN025=

USA.gov is the U.S. government's official web portal to all federal, state and local government web resources and services.